createdAt,value
2022-08-20T00:03:08.261Z,82.50
2022-08-20T00:10:10.556Z,82.89
2022-08-20T00:17:13.985Z,83.21
2022-08-20T00:24:17.157Z,83.29
2022-08-20T00:31:00.659Z,83.19
2022-08-20T00:38:03.942Z,83.33
2022-08-20T00:44:57.353Z,83.39
2022-08-20T00:51:53.242Z,83.40
2022-08-20T00:58:56.149Z,83.36
2022-08-20T01:05:59.463Z,83.17
2022-08-20T01:12:42.806Z,82.97
2022-08-20T01:19:45.792Z,82.88
2022-08-20T01:26:53.923Z,83.00
2022-08-20T01:33:48.390Z,83.19
2022-08-20T01:40:39.902Z,83.64
2022-08-20T01:47:52.109Z,83.99
2022-08-20T01:54:45.000Z,84.08
2022-08-20T02:01:48.056Z,84.39
2022-08-20T02:08:01.796Z,84.58
2022-08-20T02:15:04.918Z,84.78
2022-08-20T02:22:07.060Z,84.81
2022-08-20T02:29:10.244Z,84.75
2022-08-20T02:36:13.429Z,84.72
2022-08-20T02:43:07.590Z,84.80
2022-08-20T02:50:09.122Z,84.85
2022-08-20T02:57:11.945Z,84.49
2022-08-20T03:04:15.272Z,84.33
2022-08-20T03:11:18.237Z,84.19
2022-08-20T03:18:21.127Z,83.85
2022-08-20T03:25:16.856Z,83.59
2022-08-20T03:32:19.840Z,83.62
2022-08-20T03:39:23.077Z,83.32
2022-08-20T03:46:23.341Z,82.75
2022-08-20T03:53:26.820Z,82.18
2022-08-20T04:00:11.607Z,82.36
2022-08-20T04:07:14.791Z,82.56
2022-08-20T04:14:19.522Z,83.04
2022-08-20T04:21:24.214Z,83.40
2022-08-20T04:28:12.496Z,83.36
2022-08-20T04:34:59.732Z,83.13
2022-08-20T04:41:35.664Z,82.89
2022-08-20T04:48:26.064Z,82.69
2022-08-20T04:54:43.956Z,82.61
2022-08-20T05:01:47.488Z,82.56
2022-08-20T05:08:50.600Z,82.68
2022-08-20T05:15:22.432Z,83.11
2022-08-20T05:22:10.062Z,83.18
2022-08-20T05:29:04.042Z,83.29
2022-08-20T05:35:50.981Z,83.32
2022-08-20T05:42:54.536Z,82.96
2022-08-20T05:49:57.612Z,82.57
2022-08-20T05:56:53.688Z,82.67
2022-08-20T06:03:44.135Z,82.57
2022-08-20T06:10:47.522Z,82.19
2022-08-20T06:17:58.041Z,82.07
2022-08-20T06:25:01.770Z,81.76
2022-08-20T06:32:03.312Z,80.32
2022-08-20T06:39:06.361Z,79.29
2022-08-20T06:46:09.952Z,79.72
2022-08-20T06:52:56.096Z,79.18
2022-08-20T06:59:54.429Z,78.99
2022-08-20T07:06:47.020Z,78.86
2022-08-20T07:13:28.611Z,78.22
2022-08-20T07:20:31.819Z,77.02
2022-08-20T07:27:06.366Z,76.65
2022-08-20T07:34:13.819Z,75.87
2022-08-20T07:41:17.034Z,75.76
2022-08-20T07:48:31.275Z,74.82
2022-08-20T07:55:35.270Z,73.43
2022-08-20T08:02:21.204Z,72.10
2022-08-20T08:09:24.248Z,70.88
2022-08-20T08:16:27.454Z,69.39
2022-08-20T08:23:24.815Z,68.83
2022-08-20T08:30:25.322Z,68.37
2022-08-20T08:37:13.825Z,66.28
2022-08-20T08:43:56.705Z,64.73
2022-08-20T08:50:53.004Z,65.30
2022-08-20T08:57:51.669Z,65.10
2022-08-20T09:05:03.105Z,63.63
2022-08-20T09:11:41.279Z,63.79
2022-08-20T09:18:43.639Z,64.00
2022-08-20T09:25:21.155Z,64.97
2022-08-20T09:31:52.729Z,66.11
2022-08-20T09:38:30.913Z,65.95
2022-08-20T09:45:27.529Z,65.36
2022-08-20T09:52:30.772Z,64.40
2022-08-20T09:59:24.042Z,63.71
2022-08-20T10:06:18.276Z,62.33
2022-08-20T10:13:04.044Z,62.76
2022-08-20T10:19:15.142Z,62.01
2022-08-20T10:25:19.413Z,62.13
2022-08-20T10:32:01.203Z,62.53
2022-08-20T10:38:40.392Z,62.66
2022-08-20T10:45:23.507Z,61.49
2022-08-20T10:52:26.575Z,61.06
2022-08-20T10:59:21.249Z,61.15
2022-08-20T11:06:06.977Z,61.25
2022-08-20T11:13:10.121Z,62.35
2022-08-20T11:19:35.815Z,62.85
2022-08-20T11:26:33.269Z,62.78
2022-08-20T11:33:17.804Z,63.53
2022-08-20T11:40:24.518Z,63.17
2022-08-20T11:47:20.384Z,63.90
2022-08-20T11:53:46.097Z,65.04
2022-08-20T12:00:43.530Z,66.29
2022-08-20T12:07:26.992Z,67.53
2022-08-20T12:14:09.757Z,69.31
2022-08-20T12:21:12.976Z,69.93
2022-08-20T12:28:07.731Z,71.58
2022-08-20T12:35:11.016Z,71.53
2022-08-20T12:42:14.430Z,72.20
2022-08-20T12:49:16.279Z,72.94
2022-08-20T12:56:12.244Z,73.37
2022-08-20T13:03:19.041Z,73.43
2022-08-20T13:10:08.688Z,73.86
2022-08-20T13:16:51.691Z,74.04
2022-08-20T13:23:50.058Z,74.36
2022-08-20T13:30:55.718Z,74.04
2022-08-20T13:37:51.142Z,73.32
2022-08-20T13:44:33.293Z,73.19
2022-08-20T13:50:08.408Z,72.79
2022-08-20T13:56:02.981Z,72.38
2022-08-20T14:02:07.403Z,72.04
2022-08-20T14:08:41.702Z,71.96
2022-08-20T14:15:27.835Z,72.72
2022-08-20T14:22:30.109Z,73.10
2022-08-20T14:29:31.223Z,73.51
2022-08-20T14:36:08.379Z,73.63
2022-08-20T14:42:36.386Z,73.65
2022-08-20T14:48:47.343Z,74.07
2022-08-20T14:55:29.051Z,74.29
2022-08-20T15:01:34.967Z,75.37
2022-08-20T15:08:10.742Z,75.39
2022-08-20T15:14:06.041Z,75.10
2022-08-20T15:19:58.536Z,75.31
2022-08-20T15:26:06.900Z,75.67
2022-08-20T15:32:03.559Z,75.29
2022-08-20T15:37:34.111Z,75.79
2022-08-20T15:43:35.177Z,75.17
2022-08-20T15:49:33.294Z,75.13
2022-08-20T15:56:06.314Z,75.32
2022-08-20T16:03:00.607Z,75.32
2022-08-20T16:10:06.732Z,76.18
2022-08-20T16:17:09.946Z,76.71
2022-08-20T16:23:56.374Z,77.42
2022-08-20T16:31:14.158Z,77.02
2022-08-20T16:38:20.848Z,78.14
2022-08-20T16:45:04.134Z,77.45
2022-08-20T16:52:18.075Z,77.86
2022-08-20T16:59:27.020Z,76.93
2022-08-20T17:06:32.542Z,76.34
2022-08-20T17:13:30.444Z,76.09
2022-08-20T17:20:19.999Z,76.09
2022-08-20T17:27:09.111Z,75.77
2022-08-20T17:34:19.491Z,77.35
2022-08-20T17:40:51.268Z,77.82
2022-08-20T17:47:25.929Z,77.74
2022-08-20T17:54:34.899Z,77.37
2022-08-20T18:01:20.109Z,77.57
2022-08-20T18:08:25.601Z,77.56
2022-08-20T18:15:52.336Z,78.07
2022-08-20T18:23:10.801Z,78.07
2022-08-20T18:30:00.894Z,78.38
2022-08-20T18:37:06.431Z,78.00
2022-08-20T18:43:59.758Z,77.98
2022-08-20T18:51:01.418Z,78.01
2022-08-20T18:58:06.883Z,78.49
2022-08-20T19:04:52.973Z,78.86
2022-08-20T19:12:07.460Z,79.40
2022-08-20T19:19:11.572Z,79.62
2022-08-20T19:26:29.728Z,79.97
2022-08-20T19:33:32.785Z,80.05
2022-08-20T19:40:43.533Z,80.39
2022-08-20T19:47:30.546Z,80.60
2022-08-20T19:54:29.308Z,80.26
2022-08-20T20:01:26.213Z,80.37
2022-08-20T20:08:29.497Z,81.29
2022-08-20T20:15:35.375Z,81.07
2022-08-20T20:22:47.195Z,81.07
2022-08-20T20:29:54.999Z,81.25
2022-08-20T20:36:54.094Z,81.56
2022-08-20T20:44:03.331Z,81.61
2022-08-20T20:51:12.721Z,81.66
2022-08-20T20:58:19.064Z,81.39
2022-08-20T21:05:22.212Z,81.19
2022-08-20T21:12:27.988Z,81.29
2022-08-20T21:19:23.758Z,81.36
2022-08-20T21:26:26.755Z,81.40
2022-08-20T21:33:19.903Z,81.79
2022-08-20T21:40:23.119Z,82.17
2022-08-20T21:46:53.860Z,82.56
2022-08-20T21:53:35.970Z,82.46
2022-08-20T22:00:26.410Z,82.51
2022-08-20T22:07:29.543Z,82.41
2022-08-20T22:14:32.947Z,82.61
2022-08-20T22:21:18.509Z,82.53
2022-08-20T22:28:21.790Z,82.57
2022-08-20T22:35:18.449Z,82.46
2022-08-20T22:42:21.659Z,82.29
2022-08-20T22:49:25.053Z,82.14
2022-08-20T22:56:26.922Z,82.23
2022-08-20T23:03:40.206Z,82.28
2022-08-20T23:10:43.567Z,82.24
2022-08-20T23:17:46.990Z,82.28
2022-08-20T23:24:32.615Z,82.57
2022-08-20T23:31:35.749Z,82.73
2022-08-20T23:38:24.361Z,83.24
2022-08-20T23:45:27.626Z,82.85
2022-08-20T23:52:21.377Z,82.31
2022-08-20T23:59:24.380Z,82.01
